Archiv-/Tagesdaten

--Timestamp---	Temp	Chill	HIndex	Humid	Dewpt	Wind	HiWind	WindDir	Rain	Barom	        Solar	ET	UV
--------------	----	-----	------	-----	-----	----	------	-------	----	-----	        -----	--	--
20080513 00:05	12.7	12.7	12.7	56	4.1	2	5	67	0.00	1013.481	0	0.000	0
20080513 00:10	12.6	12.6	12.6	56	4.0	2	5	67	0.00	1013.447	0	0.000	0
20080513 00:15	12.4	12.4	12.4	56	3.9	2	5	67	0.00	1013.481	0	0.000	0
20080513 00:20	12.3	12.3	12.3	56	3.8	2	5	67	0.00	1013.481	0	0.000	0
20080513 00:25	12.3	12.3	12.3	57	4.0	0	2	67	0.00	1013.515	0	0.000	0
20080513 00:30	12.2	12.2	12.2	58	4.2	0	0	67	0.00	1013.515	0	0.000	0
20080513 00:35	12.1	12.1	12.1	58	4.0	0	2	67	0.00	1013.583	0	0.000	0
20080513 00:40	11.8	11.8	11.8	60	4.3	0	2	67	0.00	1013.583	0	0.000	0
20080513 00:45	11.6	11.6	11.6	61	4.3	0	2	67	0.00	1013.583	0	0.000	0
20080513 00:50	11.1	11.1	11.1	62	4.1	0	2	67	0.00	1013.617	0	0.000	0
20080513 00:55	10.6	10.6	10.6	64	4.0	0	0	67	0.00	1013.752	0	0.000	0
20080513 01:00	10.2	10.2	10.2	65	3.9	0	0	67	0.00	1013.684	0	0.020	0
20080513 01:05	9.9	9.9	9.9	67	4.1	0	0	67	0.00	1013.684	0	0.000	0
20080513 01:10	9.7	9.7	9.7	67	3.9	0	2	67	0.00	1013.684	0	0.000	0
20080513 01:15	9.6	9.6	9.6	68	3.9	0	0	67	0.00	1013.617	0	0.000	0
20080513 01:20	9.6	9.6	9.6	68	3.9	0	0	67	0.00	1013.617	0	0.000	0
20080513 01:25	9.6	9.6	9.6	68	3.9	0	0	67	0.00	1013.583	0	0.000	0
20080513 01:30	9.4	9.4	9.4	69	4.0	0	0	67	0.00	1013.583	0	0.000	0
20080513 01:35	9.4	9.4	9.4	69	4.0	0	0	67	0.00	1013.549	0	0.000	0
20080513 01:40	9.3	9.3	9.3	69	3.9	0	2	67	0.00	1013.481	0	0.000	0
20080513 01:45	9.4	9.4	9.4	69	4.0	0	2	67	0.00	1013.549	0	0.000	0
20080513 01:50	9.3	9.3	9.3	69	3.9	0	3	67	0.00	1013.549	0	0.000	0
20080513 01:55	9.2	9.2	9.2	69	3.8	0	2	67	0.00	1013.583	0	0.000	0
20080513 02:00	9.0	9.0	9.0	70	3.8	0	2	67	0.00	1013.617	0	0.020	0
20080513 02:05	8.8	8.8	8.8	70	3.7	0	0	67	0.00	1013.481	0	0.000	0
20080513 02:10	8.8	8.8	8.8	71	3.8	0	0	67	0.00	1013.515	0	0.000	0
20080513 02:15	8.8	8.8	8.8	72	4.0	0	0	67	0.00	1013.549	0	0.000	0
20080513 02:20	8.8	8.8	8.8	72	4.0	0	2	67	0.00	1013.481	0	0.000	0
20080513 02:25	8.8	8.8	8.8	72	4.0	0	2	67	0.00	1013.481	0	0.000	0
20080513 02:30	8.9	8.9	8.9	71	4.0	0	3	67	0.00	1013.414	0	0.000	0
20080513 02:35	9.2	9.2	9.2	71	4.2	0	2	67	0.00	1013.447	0	0.000	0
20080513 02:40	9.3	9.3	9.3	70	4.1	0	2	67	0.00	1013.380	0	0.000	0
20080513 02:45	9.3	9.3	9.3	71	4.3	0	0	67	0.00	1013.346	0	0.000	0
20080513 02:50	9.2	9.2	9.2	70	4.0	0	0	67	0.00	1013.278	0	0.000	0
20080513 02:55	9.1	9.1	9.1	71	4.1	0	2	67	0.00	1013.278	0	0.000	0
20080513 03:00	9.0	9.0	9.0	71	4.0	0	0	67	0.00	1013.346	0	0.020	0
20080513 03:05	8.9	8.9	8.9	71	4.0	0	0	67	0.00	1013.346	0	0.000	0
20080513 03:10	8.9	8.9	8.9	72	4.1	0	0	67	0.00	1013.346	0	0.000	0
20080513 03:15	8.8	8.8	8.8	72	4.1	0	0	67	0.00	1013.380	0	0.000	0
20080513 03:20	8.8	8.8	8.8	72	4.0	0	0	67	0.00	1013.346	0	0.000	0
20080513 03:25	8.8	8.8	8.8	73	4.2	0	0	67	0.00	1013.244	0	0.000	0
20080513 03:30	8.7	8.7	8.7	73	4.2	0	0	67	0.00	1013.278	0	0.000	0
20080513 03:35	8.6	8.6	8.6	74	4.2	0	0	67	0.00	1013.278	0	0.000	0
20080513 03:40	8.6	8.6	8.6	73	4.0	0	0	67	0.00	1013.278	0	0.000	0
20080513 03:45	8.6	8.6	8.6	73	4.0	0	2	67	0.00	1013.278	0	0.000	0
20080513 03:50	8.6	8.6	8.6	73	4.0	0	0	67	0.00	1013.244	0	0.000	0
20080513 03:55	8.6	8.6	8.6	73	4.0	0	0	67	0.00	1013.278	0	0.000	0
20080513 04:00	8.5	8.5	8.5	74	4.1	0	0	67	0.00	1013.346	0	0.020	0
20080513 04:05	8.3	8.3	8.3	74	4.0	0	0	67	0.00	1013.346	0	0.000	0
20080513 04:10	8.2	8.2	8.2	75	4.1	0	0	67	0.00	1013.380	0	0.000	0
20080513 04:15	8.1	8.1	8.1	75	3.9	0	0	67	0.00	1013.346	0	0.000	0
20080513 04:20	7.9	7.9	7.9	76	4.0	0	0	67	0.00	1013.414	0	0.000	0
20080513 04:25	7.9	7.9	7.9	76	3.9	0	0	67	0.00	1013.414	0	0.000	0
20080513 04:30	7.9	7.9	7.9	76	4.0	0	3	67	0.00	1013.447	0	0.000	0
20080513 04:35	7.8	7.8	7.8	76	3.9	2	5	112	0.00	1013.447	0	0.000	0
20080513 04:40	7.7	7.7	7.7	77	3.9	2	5	112	0.00	1013.380	0	0.000	0
20080513 04:45	7.6	7.6	7.6	77	3.8	0	3	180	0.00	1013.414	0	0.000	0
20080513 04:50	7.5	7.5	7.5	77	3.7	0	0	180	0.00	1013.414	0	0.000	0
20080513 04:55	7.4	7.4	7.4	78	3.8	0	0	180	0.00	1013.380	0	0.000	0
20080513 05:00	7.4	7.4	7.4	79	4.0	0	2	180	0.00	1013.380	0	0.020	0
20080513 05:05	7.4	7.4	7.4	79	4.0	0	2	180	0.00	1013.447	0	0.000	0
20080513 05:10	7.5	7.5	7.5	78	3.9	0	2	180	0.00	1013.414	0	0.000	0
20080513 05:15	7.5	7.5	7.5	78	3.9	0	2	180	0.00	1013.515	0	0.000	0
20080513 05:20	7.4	7.4	7.4	78	3.9	0	0	180	0.00	1013.549	0	0.000	0
20080513 05:25	7.3	7.3	7.3	78	3.8	0	0	180	0.00	1013.515	0	0.000	0
20080513 05:30	7.2	7.2	7.2	79	3.8	0	0	180	0.00	1013.549	0	0.000	0
20080513 05:35	7.2	7.2	7.2	79	3.8	0	0	180	0.00	1013.481	0	0.000	0
20080513 05:40	7.1	7.1	7.1	80	3.8	0	0	180	0.00	1013.515	1	0.000	0
20080513 05:45	7.1	7.1	7.1	80	3.8	0	0	180	0.00	1013.549	5	0.000	0
20080513 05:50	7.0	7.0	7.0	80	3.8	0	0	180	0.00	1013.583	8	0.000	0
20080513 05:55	6.9	6.9	6.9	80	3.7	0	0	180	0.00	1013.651	10	0.000	0
20080513 06:00	6.9	6.9	6.9	80	3.7	0	0	180	0.00	1013.651	12	0.000	0
20080513 06:05	6.9	6.9	6.9	80	3.7	0	0	180	0.00	1013.820	14	0.000	0
20080513 06:10	6.9	6.9	6.9	81	3.9	0	0	180	0.00	1013.820	17	0.000	0
20080513 06:15	7.1	7.1	7.1	81	4.0	0	2	180	0.00	1013.786	19	0.000	0
20080513 06:20	7.2	7.2	7.2	81	4.1	0	2	180	0.00	1013.786	22	0.000	0
20080513 06:25	7.2	7.2	7.2	80	4.0	0	3	180	0.00	1013.888	24	0.000	0
20080513 06:30	7.3	7.3	7.3	80	4.1	0	3	180	0.00	1013.888	26	0.000	0
20080513 06:35	7.4	7.4	7.4	80	4.2	0	3	180	0.00	1013.786	27	0.000	0
20080513 06:40	7.4	7.4	7.4	79	4.0	0	0	180	0.00	1013.820	30	0.000	0
20080513 06:45	7.5	7.5	7.5	79	4.1	0	0	180	0.00	1013.718	32	0.000	0
20080513 06:50	7.7	7.7	7.7	80	4.4	0	0	180	0.00	1013.752	33	0.000	0
20080513 06:55	7.9	7.9	7.9	79	4.5	0	0	180	0.00	1013.752	34	0.000	0
20080513 07:00	8.1	8.1	8.1	79	4.6	0	0	180	0.00	1013.718	61	0.020	0
20080513 07:05	8.3	8.3	8.3	79	4.9	0	0	180	0.00	1013.854	150	0.000	0
20080513 07:10	8.6	8.6	8.6	78	4.9	0	0	180	0.00	1013.752	167	0.000	0
20080513 07:15	8.8	8.8	8.8	77	5.0	0	0	180	0.00	1013.718	184	0.000	0
20080513 07:20	9.1	9.1	9.1	79	5.7	0	0	180	0.00	1013.888	198	0.000	0
20080513 07:25	9.6	9.6	9.6	77	5.7	0	2	180	0.00	1013.718	214	0.000	0
20080513 07:30	9.9	9.9	9.9	76	5.9	0	2	180	0.00	1013.820	230	0.000	0
20080513 07:35	10.3	10.3	10.3	77	6.4	0	2	180	0.00	1013.820	244	0.000	0
20080513 07:40	10.6	10.6	10.6	77	6.7	0	2	180	0.00	1013.752	256	0.000	0
20080513 07:45	10.7	10.7	10.7	75	6.5	0	2	180	0.00	1013.718	270	0.000	1
20080513 07:50	10.8	10.8	10.8	71	5.8	0	0	180	0.00	1013.684	283	0.000	1
20080513 07:55	11.2	11.2	11.2	69	5.7	2	3	180	0.00	1013.718	296	0.000	1
20080513 08:00	11.6	11.6	11.6	69	6.1	0	2	180	0.00	1013.617	309	0.080	1
20080513 08:05	12.2	12.2	12.2	68	6.4	2	3	180	0.00	1013.854	323	0.000	1
20080513 08:10	12.7	12.7	12.7	67	6.7	0	5	180	0.00	1013.888	338	0.000	1
20080513 08:15	12.9	12.9	12.9	65	6.5	2	5	157	0.00	1013.955	352	0.000	1
20080513 08:20	13.3	13.3	13.3	64	6.6	0	5	157	0.00	1013.786	366	0.000	1
20080513 08:25	13.6	13.6	13.6	63	6.7	0	3	157	0.00	1013.820	380	0.000	1
20080513 08:30	14.0	14.0	14.0	61	6.6	0	3	157	0.00	1013.786	393	0.000	1
20080513 08:35	14.3	14.3	14.3	60	6.7	0	5	157	0.00	1013.651	407	0.000	1
20080513 08:40	14.4	14.4	14.4	58	6.3	2	3	157	0.00	1013.651	421	0.000	1
20080513 08:45	14.7	14.7	14.7	55	5.7	2	10	135	0.00	1013.684	435	0.000	1
20080513 08:50	14.7	14.7	14.7	58	6.5	0	5	135	0.00	1013.684	448	0.000	2
20080513 08:55	15.1	15.1	15.1	56	6.4	0	2	135	0.00	1013.684	462	0.000	2
20080513 09:00	15.7	15.7	15.7	53	6.1	0	5	135	0.00	1013.515	476	0.160	2
20080513 09:05	15.9	15.9	15.9	53	6.3	2	8	135	0.00	1013.583	488	0.000	2
20080513 09:10	15.9	15.9	15.9	51	5.8	3	6	135	0.00	1013.583	500	0.000	2
20080513 09:15	16.1	16.1	16.1	52	6.2	0	3	135	0.00	1013.583	514	0.000	2
20080513 09:20	16.1	16.1	16.1	54	6.8	2	6	135	0.00	1013.583	524	0.000	2
20080513 09:25	16.4	16.4	16.4	52	6.5	2	3	157	0.00	1013.617	538	0.000	2
20080513 09:30	16.6	16.6	16.6	50	6.1	2	6	112	0.00	1013.549	551	0.000	2
20080513 09:35	16.8	16.8	16.8	50	6.3	2	6	112	0.00	1013.583	562	0.000	2
20080513 09:40	16.6	16.6	16.6	51	6.4	3	8	22	0.00	1013.583	573	0.000	3
20080513 09:45	16.4	16.4	16.4	52	6.6	5	8	45	0.00	1013.549	584	0.000	3
20080513 09:50	16.4	16.4	16.4	52	6.6	2	6	45	0.00	1013.515	595	0.000	3
20080513 09:55	16.4	16.4	16.4	52	6.6	2	6	45	0.00	1013.549	494	0.000	3
20080513 10:00	16.4	16.4	16.4	53	6.8	5	8	45	0.00	1013.515	622	0.240	2
20080513 10:05	16.3	16.3	16.3	51	6.2	3	8	45	0.00	1013.718	632	0.000	3
20080513 10:10	16.6	16.6	16.6	52	6.7	2	6	90	0.00	1013.515	642	0.000	3
20080513 10:15	16.8	16.8	16.8	52	6.9	2	6	67	0.00	1013.515	650	0.000	3
20080513 10:20	17.1	17.1	17.1	52	7.1	3	8	67	0.00	1013.549	661	0.000	4
20080513 10:25	17.4	17.4	17.4	51	7.1	2	6	135	0.00	1013.515	672	0.000	4
20080513 10:30	17.6	17.6	17.6	50	7.1	3	6	135	0.00	1013.414	679	0.000	4
20080513 10:35	17.6	17.6	17.6	52	7.6	3	10	0	0.00	1013.312	686	0.000	4
20080513 10:40	17.7	17.7	17.7	51	7.5	3	10	22	0.00	1013.312	699	0.000	4
20080513 10:45	17.8	17.8	17.8	51	7.6	2	8	22	0.00	1013.312	709	0.000	4
20080513 10:50	18.1	18.1	18.1	51	7.8	3	11	22	0.00	1013.244	715	0.000	4
20080513 10:55	18.2	18.2	18.2	50	7.6	5	11	67	0.00	1013.210	725	0.000	4
20080513 11:00	18.2	18.2	18.2	48	7.0	5	10	22	0.00	1013.177	732	0.320	4
20080513 11:05	18.2	18.2	18.2	49	7.3	5	10	45	0.00	1013.312	743	0.000	4
20080513 11:10	18.5	18.5	18.5	51	8.2	2	5	45	0.00	1013.278	751	0.000	5
20080513 11:15	18.7	18.7	18.7	49	7.7	6	14	22	0.00	1013.244	758	0.000	5
20080513 11:20	18.7	18.7	18.7	45	6.5	6	11	67	0.00	1013.278	764	0.000	5
20080513 11:25	18.8	18.8	18.8	46	7.0	6	11	45	0.00	1013.143	769	0.000	5
20080513 11:30	19.1	19.1	19.1	46	7.2	8	16	45	0.00	1013.109	778	0.000	5
20080513 11:35	19.2	19.2	19.2	43	6.3	8	14	45	0.00	1012.973	783	0.000	5
20080513 11:40	19.3	19.3	19.3	43	6.4	8	16	67	0.00	1013.041	791	0.000	5
20080513 11:45	19.3	19.3	19.3	43	6.4	6	16	45	0.00	1013.075	798	0.000	5
20080513 11:50	19.4	19.4	19.4	42	6.2	10	16	45	0.00	1013.007	803	0.000	6
20080513 11:55	19.6	19.6	19.6	43	6.6	6	14	67	0.00	1012.973	809	0.000	6
20080513 12:00	19.7	19.7	19.7	41	6.1	8	14	67	0.00	1012.939	811	0.380	6
20080513 12:05	19.9	19.9	19.9	40	5.9	6	13	67	0.00	1013.210	817	0.000	6
20080513 12:10	20.1	20.1	20.1	41	6.4	5	14	67	0.00	1013.041	822	0.000	6
20080513 12:15	19.9	19.9	19.9	42	6.6	8	14	67	0.00	1013.041	827	0.000	6
20080513 12:20	20.1	20.1	20.1	41	6.4	6	11	67	0.00	1012.973	829	0.000	6
20080513 12:25	20.4	20.4	20.4	41	6.7	8	18	67	0.00	1012.939	837	0.000	6
20080513 12:30	20.4	20.4	20.4	40	6.3	10	18	45	0.00	1012.906	835	0.000	6
20080513 12:35	20.4	20.4	20.4	38	5.6	11	19	67	0.00	1012.906	838	0.000	6
20080513 12:40	20.4	20.4	20.4	39	6.0	10	18	45	0.00	1012.804	839	0.000	6
20080513 12:45	20.7	20.7	20.7	39	6.2	8	16	67	0.00	1012.770	843	0.000	6
20080513 12:50	20.8	20.8	20.8	36	5.2	10	19	67	0.00	1012.702	845	0.000	6
20080513 12:55	20.8	20.8	20.8	35	4.8	8	18	67	0.00	1012.601	848	0.000	6
20080513 13:00	20.9	20.9	20.9	36	5.3	5	14	112	0.00	1012.601	846	0.440	6
20080513 13:05	21.1	21.1	21.1	35	5.0	6	14	67	0.00	1012.669	844	0.000	6
20080513 13:10	21.3	21.3	21.3	37	6.0	6	14	67	0.00	1012.669	846	0.000	6
20080513 13:15	21.6	21.6	21.6	38	6.6	5	13	67	0.00	1012.533	849	0.000	6
20080513 13:20	21.6	21.6	21.6	35	5.4	6	14	45	0.00	1012.635	848	0.000	6
20080513 13:25	21.4	21.4	21.4	37	6.1	10	16	67	0.00	1012.567	846	0.000	6
20080513 13:30	21.4	21.4	21.4	36	5.7	6	16	67	0.00	1012.567	847	0.000	6
20080513 13:35	21.4	21.4	21.4	35	5.3	8	18	67	0.00	1012.567	847	0.000	6
20080513 13:40	21.7	21.7	21.7	32	4.2	5	16	112	0.00	1012.567	851	0.000	6
20080513 13:45	21.9	21.9	21.9	35	5.7	6	11	45	0.00	1012.465	842	0.000	6
20080513 13:50	21.8	21.8	21.8	34	5.3	6	14	45	0.00	1012.364	838	0.000	6
20080513 13:55	22.2	22.2	22.2	29	3.3	6	14	67	0.00	1012.296	839	0.000	6
20080513 14:00	22.1	22.1	22.1	32	4.6	6	14	67	0.00	1012.228	838	0.440	6
20080513 14:05	22.1	22.1	22.1	31	4.2	8	18	45	0.00	1012.161	837	0.000	6
20080513 14:10	22.2	22.2	22.2	28	2.8	6	14	45	0.00	1012.228	834	0.000	6
20080513 14:15	22.1	22.1	22.1	31	4.1	6	13	67	0.00	1012.194	833	0.000	6
20080513 14:20	22.2	22.2	22.2	30	3.8	5	11	67	0.00	1012.194	827	0.000	6
20080513 14:25	22.1	22.1	22.1	30	3.7	6	10	67	0.00	1012.127	820	0.000	6
20080513 14:30	22.1	22.1	22.1	30	3.7	5	10	67	0.00	1012.127	816	0.000	6
20080513 14:35	22.1	22.1	22.1	29	3.2	2	6	67	0.00	1012.093	812	0.000	6
20080513 14:40	22.4	22.4	22.4	30	4.0	5	11	67	0.00	1012.059	809	0.000	6
20080513 14:45	22.3	22.3	22.3	28	2.9	5	11	67	0.00	1012.025	804	0.000	5
20080513 14:50	22.4	22.4	22.4	28	3.0	3	8	45	0.00	1011.957	797	0.000	5
20080513 14:55	22.7	22.7	22.7	30	4.2	2	8	90	0.00	1011.822	791	0.000	5
20080513 15:00	22.8	22.8	22.8	28	3.3	6	14	112	0.00	1011.890	782	0.420	5
20080513 15:05	22.8	22.8	22.8	28	3.3	2	5	45	0.00	1011.754	776	0.000	5
20080513 15:10	22.9	22.9	22.9	30	4.4	3	10	67	0.00	1011.653	760	0.000	5
20080513 15:15	22.7	22.7	22.7	30	4.2	8	16	22	0.00	1011.619	745	0.000	5
20080513 15:20	22.7	22.7	22.7	32	5.1	6	14	22	0.00	1011.585	737	0.000	4
20080513 15:25	22.9	22.9	22.9	29	3.9	6	14	22	0.00	1011.551	734	0.000	4
20080513 15:30	23.0	23.0	23.0	31	5.0	3	14	0	0.00	1011.517	728	0.000	4
20080513 15:35	23.1	23.1	23.1	30	4.6	8	16	22	0.00	1011.483	718	0.000	4
20080513 15:40	23.0	23.0	23.0	30	4.5	6	11	67	0.00	1011.416	707	0.000	4
20080513 15:45	22.6	22.6	22.6	31	4.6	10	19	22	0.00	1011.416	699	0.000	4
20080513 15:50	22.7	22.7	22.7	32	5.1	5	11	22	0.00	1011.348	686	0.000	4
20080513 15:55	22.7	22.7	22.7	30	4.2	8	14	45	0.00	1011.382	673	0.000	4
20080513 16:00	22.6	22.6	22.6	32	5.1	3	10	45	0.00	1011.348	663	0.400	4
20080513 16:05	22.9	22.9	22.9	32	5.4	3	10	45	0.00	1011.348	655	0.000	4
20080513 16:10	22.8	22.8	22.8	29	3.9	8	14	22	0.00	1011.416	645	0.000	3
20080513 16:15	22.6	22.6	22.6	29	3.7	6	13	67	0.00	1011.382	630	0.000	3
20080513 16:20	22.6	22.6	22.6	29	3.6	5	11	90	0.00	1011.348	618	0.000	3
20080513 16:25	22.7	22.7	22.7	31	4.7	3	10	22	0.00	1011.314	592	0.000	3
20080513 16:30	22.8	22.8	22.8	33	5.7	2	8	22	0.00	1011.212	596	0.000	3
20080513 16:35	22.9	22.9	22.9	32	5.4	2	8	22	0.00	1011.145	585	0.000	3
20080513 16:40	23.0	23.0	23.0	30	4.5	5	11	22	0.00	1011.145	575	0.000	3
20080513 16:45	22.9	22.9	22.9	29	4.0	6	14	45	0.00	1011.145	560	0.000	2
20080513 16:50	22.6	22.6	22.6	28	3.1	10	16	22	0.00	1011.145	548	0.000	2
20080513 16:55	22.6	22.6	22.6	30	4.1	6	10	45	0.00	1011.145	534	0.000	2
20080513 17:00	22.4	22.4	22.4	29	3.5	3	8	45	0.00	1011.179	521	0.320	2
20080513 17:05	22.6	22.6	22.6	28	3.1	5	10	45	0.00	1011.077	509	0.000	2
20080513 17:10	22.7	22.7	22.7	28	3.3	3	8	67	0.00	1011.043	498	0.000	2
20080513 17:15	22.8	22.8	22.8	27	2.8	5	10	67	0.00	1010.941	486	0.000	2
20080513 17:20	22.7	22.7	22.7	29	3.7	6	16	22	0.00	1011.009	474	0.000	2
20080513 17:25	22.6	22.6	22.6	29	3.7	5	8	67	0.00	1010.941	462	0.000	2
20080513 17:30	22.8	22.8	22.8	27	2.8	6	16	45	0.00	1011.009	447	0.000	2
20080513 17:35	22.7	22.7	22.7	26	2.2	6	11	67	0.00	1011.009	434	0.000	2
20080513 17:40	22.6	22.6	22.6	28	3.2	5	10	67	0.00	1010.908	419	0.000	1
20080513 17:45	22.7	22.7	22.7	28	3.2	3	8	67	0.00	1010.908	407	0.000	1
20080513 17:50	22.7	22.7	22.7	27	2.7	5	10	45	0.00	1010.908	395	0.000	1
20080513 17:55	22.5	22.5	22.5	26	2.0	8	16	22	0.00	1010.840	379	0.000	1
20080513 18:00	22.4	22.4	22.4	28	3.0	6	10	45	0.00	1010.941	368	0.260	1
20080513 18:05	22.6	22.6	22.6	26	2.1	6	10	45	0.00	1010.704	354	0.000	1
20080513 18:10	22.5	22.5	22.5	27	2.6	5	10	45	0.00	1010.603	340	0.000	1
20080513 18:15	22.5	22.5	22.5	27	2.6	5	10	67	0.00	1010.535	330	0.000	1
20080513 18:20	22.5	22.5	22.5	27	2.6	5	10	45	0.00	1010.569	318	0.000	1
20080513 18:25	22.4	22.4	22.4	28	3.0	5	10	45	0.00	1010.671	306	0.000	1
20080513 18:30	22.4	22.4	22.4	28	3.0	5	11	67	0.00	1010.603	291	0.000	1
20080513 18:35	22.3	22.3	22.3	28	2.9	6	14	67	0.00	1010.603	277	0.000	1
20080513 18:40	22.2	22.2	22.2	28	2.8	6	11	45	0.00	1010.603	266	0.000	1
20080513 18:45	22.1	22.1	22.1	29	3.2	5	10	22	0.00	1010.603	253	0.000	0
20080513 18:50	22.1	22.1	22.1	29	3.2	5	10	67	0.00	1010.569	240	0.000	0
20080513 18:55	21.9	21.9	21.9	28	2.6	6	10	45	0.00	1010.535	221	0.000	0
20080513 19:00	21.8	21.8	21.8	29	3.0	5	10	67	0.00	1010.501	205	0.180	0
20080513 19:05	21.7	21.7	21.7	29	2.9	6	11	45	0.00	1010.230	135	0.000	0
20080513 19:10	21.6	21.6	21.6	31	3.7	5	10	67	0.00	1010.264	50	0.000	0
20080513 19:15	21.4	21.4	21.4	30	3.1	5	10	45	0.00	1010.230	48	0.000	0
20080513 19:20	21.3	21.3	21.3	31	3.5	3	8	67	0.00	1010.298	47	0.000	0
20080513 19:25	21.2	21.2	21.2	32	3.8	5	8	45	0.00	1010.366	45	0.000	0
20080513 19:30	21.1	21.1	21.1	33	4.2	3	6	67	0.00	1010.400	43	0.000	0
20080513 19:35	20.9	20.9	20.9	33	4.0	5	8	45	0.00	1010.467	41	0.000	0
20080513 19:40	20.8	20.8	20.8	34	4.3	3	6	67	0.00	1010.467	39	0.000	0
20080513 19:45	20.6	20.6	20.6	35	4.6	5	8	45	0.00	1010.433	37	0.000	0
20080513 19:50	20.4	20.4	20.4	36	4.8	5	6	45	0.00	1010.433	34	0.000	0
20080513 19:55	20.2	20.2	20.2	38	5.4	5	6	45	0.00	1010.501	32	0.000	0
20080513 20:00	19.9	19.9	19.9	40	5.9	3	6	45	0.00	1010.535	28	0.060	0
20080513 20:05	19.6	19.6	19.6	40	5.6	3	6	67	0.00	1010.264	25	0.000	0
20080513 20:10	19.3	19.3	19.3	41	5.7	3	6	67	0.00	1010.298	22	0.000	0
20080513 20:15	19.1	19.1	19.1	41	5.5	3	6	67	0.00	1010.332	18	0.000	0
20080513 20:20	18.8	18.8	18.8	42	5.6	2	5	67	0.00	1010.366	16	0.000	0
20080513 20:25	18.6	18.6	18.6	41	5.1	2	5	67	0.00	1010.298	12	0.000	0
20080513 20:30	18.4	18.4	18.4	41	4.9	0	2	67	0.00	1010.467	11	0.000	0
20080513 20:35	18.2	18.2	18.2	42	5.0	0	2	67	0.00	1010.501	8	0.000	0
20080513 20:40	17.9	17.9	17.9	42	4.8	0	2	67	0.00	1010.569	6	0.000	0
20080513 20:45	17.7	17.7	17.7	42	4.6	0	2	67	0.00	1010.603	1	0.000	0
20080513 20:50	17.5	17.5	17.5	43	4.8	2	3	67	0.00	1010.569	0	0.000	0
20080513 20:55	17.4	17.4	17.4	43	4.7	0	2	67	0.00	1010.772	0	0.000	0
20080513 21:00	17.2	17.2	17.2	43	4.5	0	3	67	0.00	1010.772	0	0.020	0
20080513 21:05	17.1	17.1	17.1	43	4.4	0	2	67	0.00	1010.806	0	0.000	0
20080513 21:10	16.8	16.8	16.8	44	4.5	0	2	67	0.00	1010.806	0	0.000	0
20080513 21:15	16.7	16.7	16.7	44	4.4	0	2	67	0.00	1010.840	0	0.000	0
20080513 21:20	16.5	16.5	16.5	44	4.2	0	3	67	0.00	1010.908	0	0.000	0
20080513 21:25	16.4	16.4	16.4	44	4.2	0	3	67	0.00	1010.908	0	0.000	0
20080513 21:30	16.3	16.3	16.3	44	4.1	0	2	67	0.00	1011.009	0	0.000	0
20080513 21:35	16.3	16.3	16.3	44	4.0	0	2	67	0.00	1011.009	0	0.000	0
20080513 21:40	16.2	16.2	16.2	45	4.2	0	2	67	0.00	1011.077	0	0.000	0
20080513 21:45	16.0	16.0	16.0	45	4.1	0	2	67	0.00	1011.077	0	0.000	0
20080513 21:50	15.8	15.8	15.8	46	4.2	0	2	67	0.00	1011.077	0	0.000	0
20080513 21:55	15.7	15.7	15.7	45	3.8	0	2	67	0.00	1011.111	0	0.000	0
20080513 22:00	15.7	15.7	15.7	45	3.8	0	3	67	0.00	1011.111	0	0.040	0
20080513 22:05	15.6	15.6	15.6	47	4.3	2	5	90	0.00	1011.111	0	0.000	0
20080513 22:10	15.4	15.4	15.4	46	3.9	2	5	90	0.00	1011.111	0	0.000	0
20080513 22:15	15.3	15.3	15.3	47	4.1	2	5	90	0.00	1011.145	0	0.000	0
20080513 22:20	15.2	15.2	15.2	49	4.6	0	3	90	0.00	1011.212	0	0.000	0
20080513 22:25	15.0	15.0	15.0	51	4.9	0	2	112	0.00	1011.246	0	0.000	0
20080513 22:30	14.3	14.3	14.3	53	4.9	0	0	112	0.00	1011.280	0	0.000	0
20080513 22:35	13.8	13.8	13.8	54	4.7	0	0	112	0.00	1011.314	0	0.000	0
20080513 22:40	13.6	13.6	13.6	56	4.9	0	0	112	0.00	1011.348	0	0.000	0
20080513 22:45	13.4	13.4	13.4	56	4.8	0	0	112	0.00	1011.416	0	0.000	0
20080513 22:50	13.3	13.3	13.3	58	5.2	0	0	112	0.00	1011.416	0	0.000	0
20080513 22:55	13.2	13.2	13.2	57	4.8	0	2	112	0.00	1011.449	0	0.000	0
20080513 23:00	12.9	12.9	12.9	58	4.9	0	0	112	0.00	1011.416	0	0.040	0
20080513 23:05	12.8	12.8	12.8	59	5.0	0	2	112	0.00	1011.280	0	0.000	0
20080513 23:10	12.6	12.6	12.6	59	4.8	0	3	112	0.00	1011.348	0	0.000	0
20080513 23:15	12.5	12.5	12.5	59	4.7	0	0	112	0.00	1011.382	0	0.000	0
20080513 23:20	12.3	12.3	12.3	59	4.5	0	0	112	0.00	1011.382	0	0.000	0
20080513 23:25	12.3	12.3	12.3	59	4.5	0	0	112	0.00	1011.348	0	0.000	0
20080513 23:30	12.3	12.3	12.3	60	4.7	0	0	112	0.00	1011.348	0	0.000	0
20080513 23:35	12.3	12.3	12.3	60	4.8	0	0	112	0.00	1011.382	0	0.000	0
20080513 23:40	12.3	12.3	12.3	60	4.7	0	0	112	0.00	1011.382	0	0.000	0
20080513 23:45	12.3	12.3	12.3	61	5.0	0	0	112	0.00	1011.382	0	0.000	0
20080513 23:50	12.2	12.2	12.2	61	4.9	0	0	112	0.00	1011.416	0	0.000	0
20080513 23:55	12.2	12.2	12.2	61	4.9	0	0	112	0.00	1011.416	0	0.000	0
20080513 24:00	12.2	12.2	12.2	62	5.2	0	0	112	0.00	1011.449	0	0.020	0



Please note the license to use and transfer of this data:
http://creativecommons.org/licenses/by-nc-sa/3.0/deed.en

Bitte beachten sie die Lizenz zur Verwertung und Weitergabe der Daten:
http://creativecommons.org/licenses/by-nc-sa/3.0/deed.de

zurück zur Übersicht der Archivdaten (Monats und Tagesdaten)

Cookies helfen bei der Bereitstellung von Inhalten. Durch die Nutzung dieser Seiten erklärst du dich damit einverstanden, dass Cookies auf deinem Rechner gespeichert werden. Weitere Information